createdAt,value
2023-01-07T00:00:10.600Z,101010.91
2023-01-07T00:03:10.497Z,101011.72
2023-01-07T00:06:18.471Z,100992.16
2023-01-07T00:09:20.519Z,101002.28
2023-01-07T00:12:20.467Z,101008.19
2023-01-07T00:15:20.505Z,100997.16
2023-01-07T00:18:20.488Z,101013.34
2023-01-07T00:21:23.455Z,101015.88
2023-01-07T00:24:24.530Z,101021.91
2023-01-07T00:27:24.476Z,101006.56
2023-01-07T00:30:25.481Z,101001.56
2023-01-07T00:33:26.471Z,101002.34
2023-01-07T00:36:26.510Z,101014.03
2023-01-07T00:39:30.514Z,101009.69
2023-01-07T00:42:48.492Z,101015.66
2023-01-07T00:45:49.510Z,101016.44
2023-01-07T00:48:49.498Z,101011.22
2023-01-07T00:51:49.488Z,101013.69
2023-01-07T00:54:50.505Z,101016.97
2023-01-07T00:57:50.504Z,101013.28
2023-01-07T01:00:50.573Z,101015.66
2023-01-07T01:03:50.500Z,101009.53
2023-01-07T01:06:50.477Z,101002.78
2023-01-07T01:09:50.490Z,101012.97
2023-01-07T01:12:50.491Z,101019.72
2023-01-07T01:15:50.528Z,101023.94
2023-01-07T01:18:51.492Z,101025.62
2023-01-07T01:21:54.484Z,101013.72
2023-01-07T01:24:54.516Z,101023.78
2023-01-07T01:27:54.454Z,101022.03
2023-01-07T01:30:54.497Z,101019.38
2023-01-07T01:33:55.536Z,101023.66
2023-01-07T01:36:55.484Z,101019.19
2023-01-07T01:39:55.456Z,101019.13
2023-01-07T01:42:55.462Z,101001.97
2023-01-07T01:45:55.482Z,101007.06
2023-01-07T01:49:08.536Z,101014.59
2023-01-07T01:52:12.465Z,101013.72
2023-01-07T01:55:15.514Z,100993.28
2023-01-07T01:58:20.500Z,100983.91
2023-01-07T02:01:20.552Z,101005.00
2023-01-07T02:04:29.506Z,100986.22
2023-01-07T02:07:30.498Z,100986.03
2023-01-07T02:10:33.505Z,101004.19
2023-01-07T02:13:57.520Z,101003.31
2023-01-07T02:17:15.465Z,101003.37
2023-01-07T02:20:38.568Z,100997.28
2023-01-07T02:23:44.515Z,101009.41
2023-01-07T02:27:09.529Z,101005.12
2023-01-07T02:30:44.449Z,101011.22
2023-01-07T02:33:49.490Z,100998.19
2023-01-07T02:36:58.504Z,100997.31
2023-01-07T02:40:06.512Z,100996.44
2023-01-07T02:43:35.485Z,101004.19
2023-01-07T02:46:46.504Z,101014.41
2023-01-07T02:49:46.467Z,100984.59
2023-01-07T02:52:47.478Z,101009.22
2023-01-07T02:55:56.460Z,101004.03
2023-01-07T02:59:13.515Z,100998.03
2023-01-07T03:02:27.504Z,100999.69
2023-01-07T03:05:48.481Z,100994.62
2023-01-07T03:09:06.458Z,100995.41
2023-01-07T03:12:12.482Z,100989.31
2023-01-07T03:15:38.509Z,100983.22
2023-01-07T03:18:44.474Z,100985.69
2023-01-07T03:21:45.501Z,100981.28
2023-01-07T03:24:46.491Z,100987.44
2023-01-07T03:27:48.508Z,100982.44
2023-01-07T03:30:48.479Z,100989.19
2023-01-07T03:34:13.467Z,100984.09
2023-01-07T03:37:16.461Z,100993.37
2023-01-07T03:40:19.495Z,100971.34
2023-01-07T03:43:26.511Z,100995.97
2023-01-07T03:46:26.473Z,100993.25
2023-01-07T03:49:26.487Z,100980.50
2023-01-07T03:52:26.512Z,100971.94
2023-01-07T03:55:26.497Z,100997.41
2023-01-07T03:58:27.448Z,100970.41
2023-01-07T04:01:27.636Z,100996.53
2023-01-07T04:04:27.532Z,100971.06
2023-01-07T04:07:27.505Z,100965.16
2023-01-07T04:10:27.504Z,100992.22
2023-01-07T04:13:27.508Z,100992.31
2023-01-07T04:16:27.545Z,100984.84
2023-01-07T04:19:27.494Z,100986.47
2023-01-07T04:22:27.472Z,100990.03
2023-01-07T04:25:27.513Z,100987.66
2023-01-07T04:28:28.463Z,100985.81
2023-01-07T04:31:28.496Z,100979.97
2023-01-07T04:34:28.493Z,100975.53
2023-01-07T04:37:29.520Z,100990.78
2023-01-07T04:40:29.496Z,100995.84
2023-01-07T04:43:29.462Z,100996.75
2023-01-07T04:46:31.617Z,100995.03
2023-01-07T04:49:31.481Z,100996.66
2023-01-07T04:52:31.470Z,101002.72
2023-01-07T04:55:31.487Z,100999.34
2023-01-07T04:58:31.477Z,100995.00
2023-01-07T05:01:31.481Z,100994.16
2023-01-07T05:04:33.546Z,101005.38
2023-01-07T05:07:33.503Z,100992.81
2023-01-07T05:10:34.506Z,101002.00
2023-01-07T05:13:35.499Z,101017.44
2023-01-07T05:16:36.543Z,101018.41
2023-01-07T05:19:36.496Z,101027.13
2023-01-07T05:22:36.469Z,101018.53
2023-01-07T05:25:36.484Z,101031.50
2023-01-07T05:28:36.456Z,101035.09
2023-01-07T05:31:36.479Z,101034.31
2023-01-07T05:34:36.489Z,101031.91
2023-01-07T05:37:36.467Z,101029.53
2023-01-07T05:40:36.488Z,101043.37
2023-01-07T05:43:36.509Z,101039.12
2023-01-07T05:46:36.493Z,101033.34
2023-01-07T05:49:36.467Z,101034.31
2023-01-07T05:52:36.493Z,101048.94
2023-01-07T05:55:36.493Z,101034.28
2023-01-07T05:58:36.457Z,101026.81
2023-01-07T06:01:36.513Z,101021.97
2023-01-07T06:04:36.503Z,101042.28
2023-01-07T06:07:36.475Z,101043.25
2023-01-07T06:10:36.467Z,101048.44
2023-01-07T06:13:36.454Z,101038.34
2023-01-07T06:16:36.465Z,101050.25
2023-01-07T06:19:36.507Z,101058.03
2023-01-07T06:22:29.485Z,101050.37
2023-01-07T06:25:29.491Z,101058.03
2023-01-07T06:28:29.451Z,101064.13
2023-01-07T06:31:29.503Z,101046.34
2023-01-07T06:34:29.487Z,101066.78
2023-01-07T06:37:29.488Z,101071.84
2023-01-07T06:40:29.477Z,101053.00
2023-01-07T06:43:29.456Z,101073.56
2023-01-07T06:46:29.490Z,101077.00
2023-01-07T06:49:29.458Z,101086.53
2023-01-07T06:52:29.472Z,101087.28
2023-01-07T06:55:29.502Z,101093.25
2023-01-07T06:58:29.447Z,101095.75
2023-01-07T07:01:29.653Z,101085.28
2023-01-07T07:04:29.493Z,101072.31
2023-01-07T07:07:30.488Z,101068.53
2023-01-07T07:10:30.456Z,101062.44
2023-01-07T07:13:30.510Z,101072.72
2023-01-07T07:16:32.579Z,101077.72
2023-01-07T07:19:32.496Z,101082.03
2023-01-07T07:22:32.464Z,101068.59
2023-01-07T07:25:32.469Z,101070.87
2023-01-07T07:28:32.463Z,101085.25
2023-01-07T07:31:32.560Z,101086.06
2023-01-07T07:34:34.180Z,101081.78
2023-01-07T07:37:34.452Z,101086.12
2023-01-07T07:40:34.471Z,101091.34
2023-01-07T07:43:34.495Z,101087.78
2023-01-07T07:46:34.540Z,101083.53
2023-01-07T07:49:34.499Z,101094.44
2023-01-07T07:52:34.463Z,101094.19
2023-01-07T07:55:34.511Z,101082.22
2023-01-07T07:58:34.500Z,101098.06
2023-01-07T08:01:37.162Z,101102.19
2023-01-07T08:04:40.477Z,101089.06
2023-01-07T08:07:40.490Z,101097.16
2023-01-07T08:10:41.492Z,101076.63
2023-01-07T08:13:41.463Z,101093.16
2023-01-07T08:16:41.463Z,101074.94
2023-01-07T08:19:41.489Z,101089.84
2023-01-07T08:22:41.500Z,101065.19
2023-01-07T08:25:42.503Z,101090.16
2023-01-07T08:28:45.774Z,101097.63
2023-01-07T08:31:46.542Z,101102.38
2023-01-07T08:34:46.458Z,101090.03
2023-01-07T08:37:46.463Z,101097.13
2023-01-07T08:40:46.452Z,101100.81
2023-01-07T08:43:46.441Z,101109.13
2023-01-07T08:46:46.540Z,101104.84
2023-01-07T08:49:46.495Z,101107.81
2023-01-07T08:52:47.456Z,101113.94
2023-01-07T08:55:47.501Z,101108.00
2023-01-07T08:58:47.479Z,101115.78
2023-01-07T09:01:47.590Z,101107.31
2023-01-07T09:04:47.471Z,101112.66
2023-01-07T09:07:47.482Z,101108.44
2023-01-07T09:10:47.494Z,101108.44
2023-01-07T09:13:47.503Z,101112.41
2023-01-07T09:16:47.526Z,101112.81
2023-01-07T09:19:47.446Z,101118.81
2023-01-07T09:22:48.487Z,101114.25
2023-01-07T09:25:48.491Z,101119.13
2023-01-07T09:28:48.481Z,101129.81
2023-01-07T09:31:48.505Z,101121.22
2023-01-07T09:34:48.448Z,101114.19
2023-01-07T09:37:48.501Z,101119.13
2023-01-07T09:40:53.626Z,101109.22
2023-01-07T09:43:59.631Z,101112.34
2023-01-07T09:47:01.492Z,101098.63
2023-01-07T09:50:03.462Z,101099.88
2023-01-07T09:53:09.477Z,101095.53
2023-01-07T09:56:11.932Z,101098.28
2023-01-07T09:59:13.468Z,101095.53
2023-01-07T10:02:48.503Z,101082.84
2023-01-07T10:06:10.445Z,101082.78
2023-01-07T10:09:22.493Z,101088.25
2023-01-07T10:12:47.494Z,101076.84
2023-01-07T10:16:04.619Z,101081.66
2023-01-07T10:19:23.455Z,101074.59
2023-01-07T10:22:37.504Z,101076.12
2023-01-07T10:25:43.485Z,101058.16
2023-01-07T10:28:48.503Z,101074.91
2023-01-07T10:31:48.507Z,101074.47
2023-01-07T10:34:52.462Z,101064.94
2023-01-07T10:37:53.476Z,101063.94
2023-01-07T10:41:09.464Z,101069.62
2023-01-07T10:44:31.444Z,101067.41
2023-01-07T10:47:54.499Z,101060.28
2023-01-07T10:51:03.490Z,101057.56
2023-01-07T10:54:34.458Z,101073.06
2023-01-07T10:57:37.496Z,101070.16
2023-01-07T11:00:37.428Z,101064.94
2023-01-07T11:03:44.493Z,101059.56
2023-01-07T11:07:05.431Z,101050.84
2023-01-07T11:10:06.456Z,101047.47
2023-01-07T11:13:08.450Z,101051.53
2023-01-07T11:16:16.495Z,101045.06
2023-01-07T11:19:21.163Z,101045.97
2023-01-07T11:22:41.465Z,101042.47
2023-01-07T11:25:42.450Z,101043.91
2023-01-07T11:28:42.448Z,101032.41
2023-01-07T11:32:03.465Z,101035.62
2023-01-07T11:35:22.578Z,101033.31
2023-01-07T11:38:40.489Z,101028.41
2023-01-07T11:41:40.470Z,101030.25
2023-01-07T11:44:40.480Z,101001.41
2023-01-07T11:47:40.437Z,101027.72
2023-01-07T11:50:43.451Z,101029.31
2023-01-07T11:53:57.473Z,101027.19
2023-01-07T11:56:57.475Z,101021.25
2023-01-07T11:59:57.496Z,101024.06
2023-01-07T12:02:57.456Z,101024.47
2023-01-07T12:05:57.457Z,101023.25
2023-01-07T12:09:06.443Z,101015.25
2023-01-07T12:12:08.478Z,101025.28
2023-01-07T12:15:08.493Z,101018.00
2023-01-07T12:18:33.464Z,101014.00
2023-01-07T12:22:05.589Z,101004.84
2023-01-07T12:25:16.478Z,101012.84
2023-01-07T12:28:16.467Z,101008.34
2023-01-07T12:31:19.499Z,101006.59
2023-01-07T12:34:23.482Z,101013.66
2023-01-07T12:37:49.488Z,101006.63
2023-01-07T12:40:59.472Z,101006.63
2023-01-07T12:44:09.472Z,101000.84
2023-01-07T12:47:35.019Z,101003.78
2023-01-07T12:50:40.474Z,101000.25
2023-01-07T12:53:46.485Z,100996.34
2023-01-07T12:56:49.434Z,100993.41
2023-01-07T13:00:09.458Z,100997.47
2023-01-07T13:03:24.477Z,100993.19
2023-01-07T13:06:43.484Z,100996.63
2023-01-07T13:09:53.446Z,100993.94
2023-01-07T13:12:54.449Z,100998.75
2023-01-07T13:15:54.488Z,100991.72
2023-01-07T13:18:54.436Z,100983.78
2023-01-07T13:21:56.445Z,100983.91
2023-01-07T13:25:18.488Z,100984.97
2023-01-07T13:28:21.472Z,100985.97
2023-01-07T13:31:47.457Z,100977.00
2023-01-07T13:35:24.441Z,100979.91
2023-01-07T13:38:42.493Z,100982.41
2023-01-07T13:42:16.447Z,100981.47
2023-01-07T13:45:23.445Z,100982.13
2023-01-07T13:48:29.430Z,100979.69
2023-01-07T13:51:18.455Z,100982.94
2023-01-07T13:54:18.466Z,100975.44
2023-01-07T13:57:38.496Z,100981.19
2023-01-07T14:00:54.543Z,100980.03
2023-01-07T14:03:59.438Z,100981.94
2023-01-07T14:07:01.445Z,100979.47
2023-01-07T14:10:01.474Z,100968.53
2023-01-07T14:13:19.485Z,100981.31
2023-01-07T14:16:34.514Z,100982.09
2023-01-07T14:19:43.441Z,100968.53
2023-01-07T14:23:09.459Z,100982.22
2023-01-07T14:26:26.484Z,100977.88
2023-01-07T14:29:41.517Z,100978.09
2023-01-07T14:32:40.519Z,100979.00
2023-01-07T14:35:38.435Z,100970.41
2023-01-07T14:38:36.613Z,100963.88
2023-01-07T14:41:24.475Z,100983.66
2023-01-07T14:44:12.551Z,100963.38
2023-01-07T14:46:59.577Z,100973.03
2023-01-07T14:50:25.491Z,100972.91
2023-01-07T14:54:03.470Z,100975.69
2023-01-07T14:57:38.484Z,100987.84
2023-01-07T15:00:52.518Z,100989.66
2023-01-07T15:04:39.470Z,100980.22
2023-01-07T15:07:41.483Z,100984.72
2023-01-07T15:10:59.469Z,100956.75
2023-01-07T15:14:32.416Z,100971.97
2023-01-07T15:17:32.468Z,100949.16
2023-01-07T15:20:32.470Z,100979.91
2023-01-07T15:24:00.482Z,100986.81
2023-01-07T15:27:29.894Z,100984.34
2023-01-07T15:31:01.528Z,100987.00
2023-01-07T15:34:26.458Z,100982.91
2023-01-07T15:37:27.483Z,100996.66
2023-01-07T15:40:31.465Z,100988.91
2023-01-07T15:43:36.453Z,100983.72
2023-01-07T15:46:38.451Z,100986.31
2023-01-07T15:49:40.433Z,100985.47
2023-01-07T15:52:34.472Z,100959.25
2023-01-07T15:55:27.449Z,100988.22
2023-01-07T15:58:32.443Z,100988.22
2023-01-07T16:01:33.547Z,100996.06
2023-01-07T16:04:54.512Z,100986.50
2023-01-07T16:08:07.489Z,100995.25
2023-01-07T16:11:22.471Z,100987.50
2023-01-07T16:14:33.457Z,100985.78
2023-01-07T16:17:33.488Z,100954.31
2023-01-07T16:20:39.461Z,100979.75
2023-01-07T16:23:49.441Z,100975.53
2023-01-07T16:27:28.497Z,100981.56
2023-01-07T16:30:29.478Z,100977.34
2023-01-07T16:33:31.500Z,100980.88
2023-01-07T16:36:34.477Z,100974.88
2023-01-07T16:39:37.447Z,100974.09
2023-01-07T16:42:37.484Z,100974.09
2023-01-07T16:45:40.430Z,100977.59
2023-01-07T16:48:40.485Z,100969.81
2023-01-07T16:52:02.434Z,100967.34
2023-01-07T16:55:03.435Z,100968.13
2023-01-07T16:58:03.469Z,100974.25
2023-01-07T17:01:04.554Z,100974.25
2023-01-07T17:04:10.443Z,100968.25
2023-01-07T17:07:14.470Z,100973.47
2023-01-07T17:10:14.475Z,100964.91
2023-01-07T17:13:18.460Z,100966.66
2023-01-07T17:16:29.530Z,100955.44
2023-01-07T17:19:38.455Z,100963.31
2023-01-07T17:22:46.474Z,100953.81
2023-01-07T17:25:46.479Z,100954.78
2023-01-07T17:28:56.427Z,100953.91
2023-01-07T17:31:56.492Z,100955.63
2023-01-07T17:34:56.434Z,100961.81
2023-01-07T17:37:56.461Z,100932.09
2023-01-07T17:40:57.433Z,100935.63
2023-01-07T17:43:57.463Z,100944.06
2023-01-07T17:46:57.477Z,100950.81
2023-01-07T17:49:57.494Z,100942.37
2023-01-07T17:52:59.446Z,100949.13
2023-01-07T17:55:59.464Z,100940.47
2023-01-07T17:58:59.483Z,100937.94
2023-01-07T18:01:59.653Z,100937.16
2023-01-07T18:04:59.455Z,100949.41
2023-01-07T18:07:59.479Z,100941.72
2023-01-07T18:11:18.469Z,100937.56
2023-01-07T18:14:18.467Z,100908.00
2023-01-07T18:17:18.458Z,100923.41
2023-01-07T18:20:18.488Z,100918.72
2023-01-07T18:23:11.472Z,100914.06
2023-01-07T18:26:04.451Z,100919.75
2023-01-07T18:29:04.430Z,100911.75
2023-01-07T18:32:04.506Z,100912.00
2023-01-07T18:35:04.438Z,100915.88
2023-01-07T18:38:04.492Z,100915.37
2023-01-07T18:41:04.427Z,100922.44
2023-01-07T18:44:04.488Z,100892.06
2023-01-07T18:47:04.463Z,100908.56
2023-01-07T18:50:04.477Z,100907.56
2023-01-07T18:53:04.471Z,100920.16
2023-01-07T18:56:14.486Z,100917.25
2023-01-07T18:59:14.449Z,100911.69
2023-01-07T19:02:15.469Z,100916.41
2023-01-07T19:05:15.424Z,100913.28
2023-01-07T19:08:15.416Z,100913.56
2023-01-07T19:11:15.440Z,100909.94
2023-01-07T19:14:15.472Z,100907.13
2023-01-07T19:17:15.476Z,100896.12
2023-01-07T19:20:15.430Z,100905.06
2023-01-07T19:23:16.482Z,100901.50
2023-01-07T19:26:18.439Z,100904.87
2023-01-07T19:29:18.480Z,100900.56
2023-01-07T19:32:18.476Z,100899.03
2023-01-07T19:35:18.447Z,100904.75
2023-01-07T19:38:19.478Z,100899.75
2023-01-07T19:41:24.437Z,100890.72
2023-01-07T19:44:24.445Z,100901.22
2023-01-07T19:47:24.462Z,100891.94
2023-01-07T19:50:24.484Z,100894.03
2023-01-07T19:53:24.449Z,100897.97
2023-01-07T19:56:25.438Z,100895.38
2023-01-07T19:59:25.433Z,100897.28
2023-01-07T20:02:25.626Z,100898.16
2023-01-07T20:05:26.635Z,100900.06
2023-01-07T20:08:27.441Z,100894.03
2023-01-07T20:11:27.491Z,100895.00
2023-01-07T20:14:27.452Z,100892.41
2023-01-07T20:17:27.464Z,100898.72
2023-01-07T20:20:27.432Z,100891.41
2023-01-07T20:23:27.470Z,100892.31
2023-01-07T20:26:30.432Z,100886.62
2023-01-07T20:29:30.469Z,100891.06
2023-01-07T20:32:30.449Z,100885.88
2023-01-07T20:35:31.437Z,100888.34
2023-01-07T20:38:31.431Z,100888.81
2023-01-07T20:41:36.434Z,100880.78
2023-01-07T20:44:36.456Z,100884.72
2023-01-07T20:47:36.450Z,100864.94
2023-01-07T20:50:38.428Z,100877.69
2023-01-07T20:53:39.456Z,100885.19
2023-01-07T20:56:39.468Z,100879.16
2023-01-07T20:59:39.438Z,100883.56
2023-01-07T21:02:39.570Z,100880.19
2023-01-07T21:05:39.435Z,100875.22
2023-01-07T21:08:39.465Z,100871.00
2023-01-07T21:11:39.468Z,100870.25
2023-01-07T21:14:39.446Z,100870.44
2023-01-07T21:17:39.455Z,100862.22
2023-01-07T21:20:39.429Z,100857.37
2023-01-07T21:23:39.448Z,100855.00
2023-01-07T21:26:39.477Z,100851.84
2023-01-07T21:29:39.418Z,100850.37
2023-01-07T21:32:32.473Z,100843.50
2023-01-07T21:35:12.556Z,100845.50
2023-01-07T21:38:00.427Z,100844.25
2023-01-07T21:40:39.609Z,100825.22
2023-01-07T21:43:25.424Z,100844.06
2023-01-07T21:46:15.445Z,100845.84
2023-01-07T21:49:15.457Z,100848.59
2023-01-07T21:52:15.473Z,100841.06
2023-01-07T21:55:15.454Z,100841.78
2023-01-07T21:58:15.419Z,100841.47
2023-01-07T22:01:16.524Z,100842.38
2023-01-07T22:04:17.515Z,100839.63
2023-01-07T22:07:17.464Z,100844.69
2023-01-07T22:10:17.437Z,100842.28
2023-01-07T22:13:17.443Z,100847.44
2023-01-07T22:16:18.459Z,100844.88
2023-01-07T22:19:18.466Z,100840.47
2023-01-07T22:22:18.452Z,100836.81
2023-01-07T22:25:18.464Z,100832.06
2023-01-07T22:28:18.460Z,100829.47
2023-01-07T22:31:39.524Z,100823.41
2023-01-07T22:34:39.470Z,100820.66
2023-01-07T22:37:39.436Z,100822.38
2023-01-07T22:40:39.466Z,100797.84
2023-01-07T22:43:39.451Z,100821.53
2023-01-07T22:46:41.445Z,100796.87
2023-01-07T22:49:42.475Z,100807.78
2023-01-07T22:52:42.445Z,100807.03
2023-01-07T22:55:42.465Z,100809.53
2023-01-07T22:58:42.469Z,100806.94
2023-01-07T23:01:44.468Z,100804.34
2023-01-07T23:04:44.435Z,100804.44
2023-01-07T23:07:44.465Z,100804.44
2023-01-07T23:10:44.479Z,100787.59
2023-01-07T23:13:37.429Z,100799.41
2023-01-07T23:16:23.424Z,100794.38
2023-01-07T23:19:23.471Z,100802.16
2023-01-07T23:22:23.452Z,100798.78
2023-01-07T23:25:23.419Z,100790.16
2023-01-07T23:28:23.405Z,100791.16
2023-01-07T23:31:23.560Z,100794.66
2023-01-07T23:34:23.456Z,100785.25
2023-01-07T23:37:23.427Z,100781.97
2023-01-07T23:40:24.413Z,100777.09
2023-01-07T23:43:24.506Z,100778.16
2023-01-07T23:46:24.415Z,100772.22
2023-01-07T23:49:24.428Z,100762.06
2023-01-07T23:52:24.417Z,100745.34
2023-01-07T23:55:24.428Z,100750.72
2023-01-07T23:58:24.428Z,100760.25
